sensor_id;sensor_type;location;lat;lon;timestamp;P1;durP1;ratioP1;P2;durP2;ratioP2
42598;SDS011;28225;42.714;23.860;2022-10-22T00:00:11;4.55;;;4.22;;
42598;SDS011;28225;42.714;23.860;2022-10-22T00:02:38;3.50;;;3.15;;
42598;SDS011;28225;42.714;23.860;2022-10-22T00:05:04;2.83;;;2.60;;
42598;SDS011;28225;42.714;23.860;2022-10-22T00:07:30;11.85;;;2.78;;
42598;SDS011;28225;42.714;23.860;2022-10-22T00:09:55;1.48;;;1.48;;
42598;SDS011;28225;42.714;23.860;2022-10-22T00:12:20;3.58;;;3.30;;
42598;SDS011;28225;42.714;23.860;2022-10-22T00:14:46;4.32;;;3.10;;
42598;SDS011;28225;42.714;23.860;2022-10-22T00:17:12;2.67;;;2.45;;
42598;SDS011;28225;42.714;23.860;2022-10-22T00:19:37;2.55;;;2.45;;
42598;SDS011;28225;42.714;23.860;2022-10-22T00:22:03;3.03;;;2.83;;
42598;SDS011;28225;42.714;23.860;2022-10-22T00:24:30;1.88;;;1.55;;
42598;SDS011;28225;42.714;23.860;2022-10-22T00:26:56;2.17;;;1.98;;
42598;SDS011;28225;42.714;23.860;2022-10-22T00:29:21;1.45;;;1.27;;
42598;SDS011;28225;42.714;23.860;2022-10-22T00:31:47;0.68;;;0.68;;
42598;SDS011;28225;42.714;23.860;2022-10-22T00:34:17;3.15;;;2.90;;
42598;SDS011;28225;42.714;23.860;2022-10-22T00:36:45;3.10;;;1.50;;
42598;SDS011;28225;42.714;23.860;2022-10-22T00:39:11;2.40;;;2.20;;
42598;SDS011;28225;42.714;23.860;2022-10-22T00:41:40;2.17;;;2.08;;
42598;SDS011;28225;42.714;23.860;2022-10-22T00:44:06;1.48;;;1.38;;
42598;SDS011;28225;42.714;23.860;2022-10-22T00:46:32;2.20;;;1.50;;
42598;SDS011;28225;42.714;23.860;2022-10-22T00:48:58;1.27;;;1.17;;
42598;SDS011;28225;42.714;23.860;2022-10-22T00:51:26;2.47;;;2.17;;
42598;SDS011;28225;42.714;23.860;2022-10-22T00:53:54;9.57;;;2.23;;
42598;SDS011;28225;42.714;23.860;2022-10-22T00:56:24;2.17;;;2.08;;
42598;SDS011;28225;42.714;23.860;2022-10-22T00:58:54;2.17;;;1.85;;
42598;SDS011;28225;42.714;23.860;2022-10-22T01:01:23;1.50;;;1.42;;
42598;SDS011;28225;42.714;23.860;2022-10-22T01:03:52;0.95;;;0.95;;
42598;SDS011;28225;42.714;23.860;2022-10-22T01:06:20;1.40;;;1.38;;
42598;SDS011;28225;42.714;23.860;2022-10-22T01:09:01;3.45;;;2.00;;
42598;SDS011;28225;42.714;23.860;2022-10-22T01:14:35;3.55;;;3.33;;
42598;SDS011;28225;42.714;23.860;2022-10-22T01:17:31;2.45;;;2.35;;
42598;SDS011;28225;42.714;23.860;2022-10-22T01:23:03;1.13;;;1.13;;
42598;SDS011;28225;42.714;23.860;2022-10-22T01:25:47;2.92;;;2.67;;
42598;SDS011;28225;42.714;23.860;2022-10-22T01:31:09;0.88;;;0.85;;
42598;SDS011;28225;42.714;23.860;2022-10-22T01:33:36;1.52;;;1.42;;
42598;SDS011;28225;42.714;23.860;2022-10-22T01:36:02;1.75;;;1.33;;
42598;SDS011;28225;42.714;23.860;2022-10-22T01:38:28;0.47;;;0.47;;
42598;SDS011;28225;42.714;23.860;2022-10-22T01:40:54;1.80;;;1.67;;
42598;SDS011;28225;42.714;23.860;2022-10-22T01:43:19;1.25;;;1.25;;
42598;SDS011;28225;42.714;23.860;2022-10-22T01:56:16;2.92;;;2.15;;
42598;SDS011;28225;42.714;23.860;2022-10-22T01:58:55;0.93;;;0.93;;
42598;SDS011;28225;42.714;23.860;2022-10-22T02:01:48;1.63;;;1.58;;
42598;SDS011;28225;42.714;23.860;2022-10-22T02:04:25;2.85;;;2.17;;
42598;SDS011;28225;42.714;23.860;2022-10-22T02:06:53;1.25;;;1.25;;
42598;SDS011;28225;42.714;23.860;2022-10-22T02:09:22;1.38;;;1.33;;
42598;SDS011;28225;42.714;23.860;2022-10-22T02:11:49;1.15;;;1.15;;
42598;SDS011;28225;42.714;23.860;2022-10-22T02:14:15;1.58;;;1.48;;
42598;SDS011;28225;42.714;23.860;2022-10-22T02:16:43;2.20;;;2.10;;
42598;SDS011;28225;42.714;23.860;2022-10-22T02:22:08;1.08;;;1.05;;
42598;SDS011;28225;42.714;23.860;2022-10-22T02:24:34;2.35;;;2.25;;
42598;SDS011;28225;42.714;23.860;2022-10-22T02:27:02;1.10;;;1.00;;
42598;SDS011;28225;42.714;23.860;2022-10-22T02:29:39;0.50;;;0.50;;
42598;SDS011;28225;42.714;23.860;2022-10-22T02:32:07;0.55;;;0.55;;
42598;SDS011;28225;42.714;23.860;2022-10-22T02:34:34;1.17;;;0.88;;
42598;SDS011;28225;42.714;23.860;2022-10-22T02:37:00;0.73;;;0.73;;
42598;SDS011;28225;42.714;23.860;2022-10-22T02:39:26;1.17;;;1.13;;
42598;SDS011;28225;42.714;23.860;2022-10-22T02:41:52;1.02;;;1.02;;
42598;SDS011;28225;42.714;23.860;2022-10-22T02:44:19;1.40;;;1.30;;
42598;SDS011;28225;42.714;23.860;2022-10-22T02:46:46;0.95;;;0.95;;
42598;SDS011;28225;42.714;23.860;2022-10-22T02:49:12;1.10;;;1.10;;
42598;SDS011;28225;42.714;23.860;2022-10-22T02:51:37;1.60;;;1.55;;
42598;SDS011;28225;42.714;23.860;2022-10-22T02:54:03;2.05;;;1.95;;
42598;SDS011;28225;42.714;23.860;2022-10-22T02:56:29;2.25;;;2.10;;
42598;SDS011;28225;42.714;23.860;2022-10-22T02:58:54;2.08;;;1.77;;
42598;SDS011;28225;42.714;23.860;2022-10-22T03:01:20;3.15;;;2.90;;
42598;SDS011;28225;42.714;23.860;2022-10-22T03:03:45;2.65;;;1.75;;
42598;SDS011;28225;42.714;23.860;2022-10-22T03:06:10;2.28;;;1.95;;
42598;SDS011;28225;42.714;23.860;2022-10-22T03:08:36;2.20;;;2.10;;
42598;SDS011;28225;42.714;23.860;2022-10-22T03:11:02;1.98;;;1.52;;
42598;SDS011;28225;42.714;23.860;2022-10-22T03:13:27;1.80;;;1.67;;
42598;SDS011;28225;42.714;23.860;2022-10-22T03:15:53;0.93;;;0.93;;
42598;SDS011;28225;42.714;23.860;2022-10-22T03:18:18;2.28;;;1.73;;
42598;SDS011;28225;42.714;23.860;2022-10-22T03:20:44;0.75;;;0.75;;
42598;SDS011;28225;42.714;23.860;2022-10-22T03:23:10;5.70;;;2.42;;
42598;SDS011;28225;42.714;23.860;2022-10-22T03:25:38;1.20;;;1.15;;
42598;SDS011;28225;42.714;23.860;2022-10-22T03:28:06;2.50;;;1.27;;
42598;SDS011;28225;42.714;23.860;2022-10-22T03:30:32;1.80;;;1.70;;
42598;SDS011;28225;42.714;23.860;2022-10-22T03:32:58;1.85;;;1.75;;
42598;SDS011;28225;42.714;23.860;2022-10-22T03:35:23;0.50;;;0.50;;
42598;SDS011;28225;42.714;23.860;2022-10-22T03:37:49;2.38;;;2.25;;
42598;SDS011;28225;42.714;23.860;2022-10-22T03:40:15;1.30;;;1.20;;
42598;SDS011;28225;42.714;23.860;2022-10-22T03:42:41;0.50;;;0.50;;
42598;SDS011;28225;42.714;23.860;2022-10-22T03:45:07;2.08;;;1.88;;
42598;SDS011;28225;42.714;23.860;2022-10-22T03:47:33;0.82;;;0.82;;
42598;SDS011;28225;42.714;23.860;2022-10-22T03:49:58;2.85;;;2.72;;
42598;SDS011;28225;42.714;23.860;2022-10-22T03:52:24;2.55;;;2.35;;
42598;SDS011;28225;42.714;23.860;2022-10-22T03:54:49;1.38;;;1.38;;
42598;SDS011;28225;42.714;23.860;2022-10-22T03:57:15;2.17;;;1.92;;
42598;SDS011;28225;42.714;23.860;2022-10-22T03:59:41;0.95;;;0.95;;
42598;SDS011;28225;42.714;23.860;2022-10-22T04:02:08;0.60;;;0.60;;
42598;SDS011;28225;42.714;23.860;2022-10-22T04:04:34;1.50;;;1.45;;
42598;SDS011;28225;42.714;23.860;2022-10-22T04:07:00;9.18;;;2.75;;
42598;SDS011;28225;42.714;23.860;2022-10-22T04:09:25;7.68;;;3.95;;
42598;SDS011;28225;42.714;23.860;2022-10-22T04:11:51;0.88;;;0.88;;
42598;SDS011;28225;42.714;23.860;2022-10-22T04:14:17;0.88;;;0.88;;
42598;SDS011;28225;42.714;23.860;2022-10-22T04:16:42;1.77;;;1.67;;
42598;SDS011;28225;42.714;23.860;2022-10-22T04:19:08;1.48;;;1.40;;
42598;SDS011;28225;42.714;23.860;2022-10-22T04:21:33;1.35;;;1.17;;
42598;SDS011;28225;42.714;23.860;2022-10-22T04:23:59;1.65;;;1.55;;
42598;SDS011;28225;42.714;23.860;2022-10-22T04:26:25;2.38;;;2.28;;
42598;SDS011;28225;42.714;23.860;2022-10-22T04:28:50;0.85;;;0.85;;
42598;SDS011;28225;42.714;23.860;2022-10-22T04:31:18;0.80;;;0.80;;
42598;SDS011;28225;42.714;23.860;2022-10-22T04:33:45;0.32;;;0.32;;
42598;SDS011;28225;42.714;23.860;2022-10-22T04:36:14;2.67;;;2.45;;
42598;SDS011;28225;42.714;23.860;2022-10-22T04:38:42;1.02;;;0.85;;
42598;SDS011;28225;42.714;23.860;2022-10-22T04:41:16;0.88;;;0.88;;
42598;SDS011;28225;42.714;23.860;2022-10-22T04:43:42;0.73;;;0.73;;
42598;SDS011;28225;42.714;23.860;2022-10-22T04:46:08;11.70;;;0.90;;
42598;SDS011;28225;42.714;23.860;2022-10-22T04:48:35;1.60;;;1.50;;
42598;SDS011;28225;42.714;23.860;2022-10-22T04:51:02;1.65;;;1.55;;
42598;SDS011;28225;42.714;23.860;2022-10-22T04:53:28;0.95;;;0.95;;
42598;SDS011;28225;42.714;23.860;2022-10-22T04:55:54;6.53;;;4.20;;
42598;SDS011;28225;42.714;23.860;2022-10-22T04:58:20;4.50;;;4.20;;
42598;SDS011;28225;42.714;23.860;2022-10-22T05:00:45;11.48;;;3.97;;
42598;SDS011;28225;42.714;23.860;2022-10-22T05:03:11;1.55;;;0.98;;
42598;SDS011;28225;42.714;23.860;2022-10-22T05:05:36;1.50;;;1.45;;
42598;SDS011;28225;42.714;23.860;2022-10-22T05:08:01;1.30;;;1.30;;
42598;SDS011;28225;42.714;23.860;2022-10-22T05:10:27;2.67;;;2.47;;
42598;SDS011;28225;42.714;23.860;2022-10-22T05:12:52;1.63;;;1.52;;
42598;SDS011;28225;42.714;23.860;2022-10-22T05:15:18;2.30;;;2.10;;
42598;SDS011;28225;42.714;23.860;2022-10-22T05:17:43;7.38;;;2.83;;
42598;SDS011;28225;42.714;23.860;2022-10-22T05:20:09;2.30;;;2.20;;
42598;SDS011;28225;42.714;23.860;2022-10-22T05:22:35;1.65;;;1.58;;
42598;SDS011;28225;42.714;23.860;2022-10-22T05:25:00;1.00;;;1.00;;
42598;SDS011;28225;42.714;23.860;2022-10-22T05:27:26;8.25;;;4.18;;
42598;SDS011;28225;42.714;23.860;2022-10-22T05:29:51;0.85;;;0.82;;
42598;SDS011;28225;42.714;23.860;2022-10-22T05:32:16;0.93;;;0.93;;
42598;SDS011;28225;42.714;23.860;2022-10-22T05:34:42;2.92;;;1.50;;
42598;SDS011;28225;42.714;23.860;2022-10-22T05:37:07;4.20;;;3.95;;
42598;SDS011;28225;42.714;23.860;2022-10-22T05:39:33;2.60;;;2.50;;
42598;SDS011;28225;42.714;23.860;2022-10-22T05:42:01;0.93;;;0.93;;
42598;SDS011;28225;42.714;23.860;2022-10-22T05:44:27;3.78;;;3.58;;
42598;SDS011;28225;42.714;23.860;2022-10-22T05:46:52;7.07;;;6.05;;
42598;SDS011;28225;42.714;23.860;2022-10-22T05:49:18;5.43;;;5.07;;
42598;SDS011;28225;42.714;23.860;2022-10-22T05:51:44;4.28;;;3.30;;
42598;SDS011;28225;42.714;23.860;2022-10-22T05:54:15;3.65;;;2.72;;
42598;SDS011;28225;42.714;23.860;2022-10-22T05:56:43;2.17;;;2.05;;
42598;SDS011;28225;42.714;23.860;2022-10-22T05:59:11;0.80;;;0.80;;
42598;SDS011;28225;42.714;23.860;2022-10-22T06:01:37;3.42;;;3.13;;
42598;SDS011;28225;42.714;23.860;2022-10-22T06:04:04;3.53;;;3.28;;
42598;SDS011;28225;42.714;23.860;2022-10-22T06:06:44;4.60;;;4.30;;
42598;SDS011;28225;42.714;23.860;2022-10-22T06:11:53;6.35;;;5.85;;
42598;SDS011;28225;42.714;23.860;2022-10-22T06:14:19;6.75;;;5.82;;
42598;SDS011;28225;42.714;23.860;2022-10-22T06:16:46;5.72;;;5.28;;
42598;SDS011;28225;42.714;23.860;2022-10-22T06:19:12;7.88;;;7.22;;
42598;SDS011;28225;42.714;23.860;2022-10-22T06:21:40;6.45;;;5.75;;
42598;SDS011;28225;42.714;23.860;2022-10-22T06:24:06;6.20;;;5.60;;
42598;SDS011;28225;42.714;23.860;2022-10-22T06:26:32;15.90;;;6.45;;
42598;SDS011;28225;42.714;23.860;2022-10-22T06:28:58;4.22;;;3.90;;
42598;SDS011;28225;42.714;23.860;2022-10-22T06:31:24;6.82;;;5.70;;
42598;SDS011;28225;42.714;23.860;2022-10-22T06:33:50;2.60;;;2.42;;
42598;SDS011;28225;42.714;23.860;2022-10-22T06:36:17;3.25;;;1.30;;
42598;SDS011;28225;42.714;23.860;2022-10-22T06:38:44;2.42;;;2.25;;
42598;SDS011;28225;42.714;23.860;2022-10-22T06:41:11;5.32;;;3.03;;
42598;SDS011;28225;42.714;23.860;2022-10-22T06:43:38;1.87;;;1.77;;
42598;SDS011;28225;42.714;23.860;2022-10-22T06:46:06;1.63;;;1.48;;
42598;SDS011;28225;42.714;23.860;2022-10-22T06:48:36;2.78;;;2.58;;
42598;SDS011;28225;42.714;23.860;2022-10-22T06:51:05;1.83;;;1.73;;
42598;SDS011;28225;42.714;23.860;2022-10-22T06:53:32;3.47;;;3.28;;
42598;SDS011;28225;42.714;23.860;2022-10-22T06:56:03;2.63;;;2.42;;
42598;SDS011;28225;42.714;23.860;2022-10-22T06:58:32;3.88;;;2.60;;
42598;SDS011;28225;42.714;23.860;2022-10-22T07:01:06;2.45;;;2.22;;
42598;SDS011;28225;42.714;23.860;2022-10-22T07:03:33;1.05;;;1.05;;
42598;SDS011;28225;42.714;23.860;2022-10-22T07:06:03;1.25;;;1.25;;
42598;SDS011;28225;42.714;23.860;2022-10-22T07:08:30;4.47;;;3.53;;
42598;SDS011;28225;42.714;23.860;2022-10-22T07:10:56;9.38;;;2.35;;
42598;SDS011;28225;42.714;23.860;2022-10-22T07:13:28;1.45;;;1.45;;
42598;SDS011;28225;42.714;23.860;2022-10-22T07:15:54;1.88;;;1.67;;
42598;SDS011;28225;42.714;23.860;2022-10-22T07:18:21;2.58;;;2.38;;
42598;SDS011;28225;42.714;23.860;2022-10-22T07:20:47;2.25;;;2.05;;
42598;SDS011;28225;42.714;23.860;2022-10-22T07:23:13;0.93;;;0.93;;
42598;SDS011;28225;42.714;23.860;2022-10-22T07:25:39;3.05;;;1.20;;
42598;SDS011;28225;42.714;23.860;2022-10-22T07:28:05;1.90;;;1.80;;
42598;SDS011;28225;42.714;23.860;2022-10-22T07:30:30;2.10;;;2.00;;
42598;SDS011;28225;42.714;23.860;2022-10-22T07:32:56;2.13;;;2.03;;
42598;SDS011;28225;42.714;23.860;2022-10-22T07:35:21;2.53;;;2.13;;
42598;SDS011;28225;42.714;23.860;2022-10-22T07:37:47;3.60;;;2.88;;
42598;SDS011;28225;42.714;23.860;2022-10-22T07:40:13;1.48;;;1.38;;
42598;SDS011;28225;42.714;23.860;2022-10-22T07:42:38;2.47;;;2.28;;
42598;SDS011;28225;42.714;23.860;2022-10-22T07:45:04;2.22;;;2.05;;
42598;SDS011;28225;42.714;23.860;2022-10-22T07:47:30;2.03;;;1.83;;
42598;SDS011;28225;42.714;23.860;2022-10-22T07:49:55;2.75;;;2.47;;
42598;SDS011;28225;42.714;23.860;2022-10-22T07:52:20;3.22;;;1.75;;
42598;SDS011;28225;42.714;23.860;2022-10-22T07:54:46;1.83;;;1.73;;
42598;SDS011;28225;42.714;23.860;2022-10-22T07:57:11;2.72;;;2.53;;
42598;SDS011;28225;42.714;23.860;2022-10-22T07:59:37;1.92;;;1.73;;
42598;SDS011;28225;42.714;23.860;2022-10-22T08:02:02;4.47;;;2.97;;
42598;SDS011;28225;42.714;23.860;2022-10-22T08:04:28;2.55;;;2.22;;
42598;SDS011;28225;42.714;23.860;2022-10-22T08:06:53;2.50;;;2.40;;
42598;SDS011;28225;42.714;23.860;2022-10-22T08:09:19;3.90;;;2.60;;
42598;SDS011;28225;42.714;23.860;2022-10-22T08:11:44;4.10;;;2.45;;
42598;SDS011;28225;42.714;23.860;2022-10-22T08:14:10;2.22;;;2.00;;
42598;SDS011;28225;42.714;23.860;2022-10-22T08:16:36;0.85;;;0.85;;
42598;SDS011;28225;42.714;23.860;2022-10-22T08:19:01;1.88;;;1.27;;
42598;SDS011;28225;42.714;23.860;2022-10-22T08:21:27;1.20;;;1.05;;
42598;SDS011;28225;42.714;23.860;2022-10-22T08:23:53;3.03;;;1.90;;
42598;SDS011;28225;42.714;23.860;2022-10-22T08:26:18;1.27;;;1.17;;
42598;SDS011;28225;42.714;23.860;2022-10-22T08:28:44;2.47;;;2.28;;
42598;SDS011;28225;42.714;23.860;2022-10-22T08:31:09;1.52;;;1.05;;
42598;SDS011;28225;42.714;23.860;2022-10-22T08:33:35;2.53;;;2.13;;
42598;SDS011;28225;42.714;23.860;2022-10-22T08:36:02;1.50;;;1.35;;
42598;SDS011;28225;42.714;23.860;2022-10-22T08:38:28;1.67;;;1.58;;
42598;SDS011;28225;42.714;23.860;2022-10-22T08:41:17;3.67;;;2.17;;
42598;SDS011;28225;42.714;23.860;2022-10-22T08:49:03;1.17;;;1.10;;
42598;SDS011;28225;42.714;23.860;2022-10-22T08:51:32;0.80;;;0.80;;
42598;SDS011;28225;42.714;23.860;2022-10-22T08:56:49;0.90;;;0.90;;
42598;SDS011;28225;42.714;23.860;2022-10-22T09:05:22;0.80;;;0.80;;
42598;SDS011;28225;42.714;23.860;2022-10-22T09:07:58;3.15;;;1.73;;
42598;SDS011;28225;42.714;23.860;2022-10-22T09:10:24;0.60;;;0.60;;
42598;SDS011;28225;42.714;23.860;2022-10-22T09:12:53;0.82;;;0.82;;
42598;SDS011;28225;42.714;23.860;2022-10-22T09:15:19;2.13;;;1.77;;
42598;SDS011;28225;42.714;23.860;2022-10-22T09:26:17;1.98;;;1.50;;
42598;SDS011;28225;42.714;23.860;2022-10-22T09:28:42;1.88;;;1.55;;
42598;SDS011;28225;42.714;23.860;2022-10-22T09:31:12;1.25;;;1.25;;
42598;SDS011;28225;42.714;23.860;2022-10-22T09:33:38;0.52;;;0.52;;
42598;SDS011;28225;42.714;23.860;2022-10-22T09:36:05;1.80;;;1.70;;
42598;SDS011;28225;42.714;23.860;2022-10-22T09:38:53;0.77;;;0.77;;
42598;SDS011;28225;42.714;23.860;2022-10-22T09:41:18;1.10;;;1.00;;
42598;SDS011;28225;42.714;23.860;2022-10-22T09:43:47;0.90;;;0.90;;
42598;SDS011;28225;42.714;23.860;2022-10-22T09:46:17;2.72;;;1.70;;
42598;SDS011;28225;42.714;23.860;2022-10-22T09:48:52;1.17;;;1.08;;
42598;SDS011;28225;42.714;23.860;2022-10-22T09:51:35;0.50;;;0.50;;
42598;SDS011;28225;42.714;23.860;2022-10-22T09:54:16;2.25;;;1.63;;
42598;SDS011;28225;42.714;23.860;2022-10-22T09:56:49;8.65;;;1.33;;
42598;SDS011;28225;42.714;23.860;2022-10-22T09:59:16;0.65;;;0.65;;
42598;SDS011;28225;42.714;23.860;2022-10-22T10:01:43;0.70;;;0.70;;
42598;SDS011;28225;42.714;23.860;2022-10-22T10:04:10;0.88;;;0.88;;
42598;SDS011;28225;42.714;23.860;2022-10-22T10:06:39;1.90;;;1.38;;
42598;SDS011;28225;42.714;23.860;2022-10-22T10:09:16;1.33;;;1.23;;
42598;SDS011;28225;42.714;23.860;2022-10-22T10:11:45;1.55;;;1.17;;
42598;SDS011;28225;42.714;23.860;2022-10-22T10:17:05;0.82;;;0.82;;
42598;SDS011;28225;42.714;23.860;2022-10-22T10:19:55;0.95;;;0.93;;
42598;SDS011;28225;42.714;23.860;2022-10-22T10:22:47;0.70;;;0.70;;
42598;SDS011;28225;42.714;23.860;2022-10-22T10:28:22;1.52;;;1.48;;
42598;SDS011;28225;42.714;23.860;2022-10-22T10:36:34;1.08;;;0.63;;
42598;SDS011;28225;42.714;23.860;2022-10-22T10:49:26;1.42;;;0.85;;
42598;SDS011;28225;42.714;23.860;2022-10-22T10:52:04;1.45;;;0.82;;
42598;SDS011;28225;42.714;23.860;2022-10-22T11:10:51;1.45;;;1.35;;
42598;SDS011;28225;42.714;23.860;2022-10-22T11:18:52;1.25;;;1.25;;
42598;SDS011;28225;42.714;23.860;2022-10-22T11:21:37;0.88;;;0.45;;
42598;SDS011;28225;42.714;23.860;2022-10-22T11:26:50;0.73;;;0.73;;
42598;SDS011;28225;42.714;23.860;2022-10-22T11:29:27;1.73;;;1.13;;
42598;SDS011;28225;42.714;23.860;2022-10-22T11:31:56;1.00;;;1.00;;
42598;SDS011;28225;42.714;23.860;2022-10-22T11:34:26;1.40;;;1.23;;
42598;SDS011;28225;42.714;23.860;2022-10-22T11:36:58;0.68;;;0.50;;
42598;SDS011;28225;42.714;23.860;2022-10-22T11:40:06;0.60;;;0.60;;
42598;SDS011;28225;42.714;23.860;2022-10-22T11:42:17;1.20;;;1.15;;
42598;SDS011;28225;42.714;23.860;2022-10-22T11:44:48;0.85;;;0.85;;
42598;SDS011;28225;42.714;23.860;2022-10-22T11:47:27;1.27;;;1.17;;
42598;SDS011;28225;42.714;23.860;2022-10-22T11:49:57;1.77;;;1.48;;
42598;SDS011;28225;42.714;23.860;2022-10-22T11:54:56;0.90;;;0.90;;
42598;SDS011;28225;42.714;23.860;2022-10-22T11:57:36;0.43;;;0.43;;
42598;SDS011;28225;42.714;23.860;2022-10-22T12:00:08;0.68;;;0.63;;
42598;SDS011;28225;42.714;23.860;2022-10-22T12:02:46;0.45;;;0.45;;
42598;SDS011;28225;42.714;23.860;2022-10-22T12:07:56;1.08;;;1.08;;
42598;SDS011;28225;42.714;23.860;2022-10-22T12:10:26;1.75;;;1.65;;
42598;SDS011;28225;42.714;23.860;2022-10-22T12:13:14;0.55;;;0.55;;
42598;SDS011;28225;42.714;23.860;2022-10-22T12:15:47;0.80;;;0.75;;
42598;SDS011;28225;42.714;23.860;2022-10-22T12:18:13;0.93;;;0.80;;
42598;SDS011;28225;42.714;23.860;2022-10-22T12:20:40;0.70;;;0.70;;
42598;SDS011;28225;42.714;23.860;2022-10-22T12:23:08;0.47;;;0.47;;
42598;SDS011;28225;42.714;23.860;2022-10-22T12:25:35;0.68;;;0.68;;
42598;SDS011;28225;42.714;23.860;2022-10-22T12:28:01;0.80;;;0.80;;
42598;SDS011;28225;42.714;23.860;2022-10-22T12:32:54;0.68;;;0.68;;
42598;SDS011;28225;42.714;23.860;2022-10-22T16:44:31;26.88;;;3.97;;
42598;SDS011;28225;42.714;23.860;2022-10-22T16:46:56;4.78;;;3.17;;
42598;SDS011;28225;42.714;23.860;2022-10-22T16:49:22;3.10;;;2.88;;
42598;SDS011;28225;42.714;23.860;2022-10-22T16:51:47;1.63;;;1.63;;
42598;SDS011;28225;42.714;23.860;2022-10-22T16:54:13;3.83;;;2.88;;
42598;SDS011;28225;42.714;23.860;2022-10-22T16:56:39;2.72;;;2.53;;
42598;SDS011;28225;42.714;23.860;2022-10-22T16:59:05;2.45;;;2.35;;
42598;SDS011;28225;42.714;23.860;2022-10-22T17:01:30;4.13;;;3.72;;
42598;SDS011;28225;42.714;23.860;2022-10-22T17:03:59;10.52;;;5.07;;
42598;SDS011;28225;42.714;23.860;2022-10-22T17:06:25;2.42;;;2.33;;
42598;SDS011;28225;42.714;23.860;2022-10-22T17:08:50;4.60;;;3.15;;
42598;SDS011;28225;42.714;23.860;2022-10-22T17:11:18;4.72;;;3.53;;
42598;SDS011;28225;42.714;23.860;2022-10-22T17:13:46;7.82;;;6.78;;
42598;SDS011;28225;42.714;23.860;2022-10-22T17:16:13;8.68;;;7.38;;
42598;SDS011;28225;42.714;23.860;2022-10-22T17:18:42;12.20;;;7.90;;
42598;SDS011;28225;42.714;23.860;2022-10-22T17:21:09;2.53;;;1.85;;
42598;SDS011;28225;42.714;23.860;2022-10-22T17:23:36;4.32;;;3.95;;
42598;SDS011;28225;42.714;23.860;2022-10-22T17:26:02;4.35;;;3.95;;
42598;SDS011;28225;42.714;23.860;2022-10-22T17:28:32;4.68;;;4.28;;
42598;SDS011;28225;42.714;23.860;2022-10-22T17:33:44;3.30;;;3.10;;
42598;SDS011;28225;42.714;23.860;2022-10-22T17:36:10;6.40;;;5.72;;
42598;SDS011;28225;42.714;23.860;2022-10-22T17:38:37;6.25;;;5.63;;
42598;SDS011;28225;42.714;23.860;2022-10-22T17:41:04;4.88;;;4.18;;
42598;SDS011;28225;42.714;23.860;2022-10-22T17:43:31;6.70;;;5.95;;
42598;SDS011;28225;42.714;23.860;2022-10-22T17:46:05;12.25;;;5.40;;
42598;SDS011;28225;42.714;23.860;2022-10-22T17:48:31;4.47;;;4.07;;
42598;SDS011;28225;42.714;23.860;2022-10-22T17:50:57;9.32;;;7.82;;
42598;SDS011;28225;42.714;23.860;2022-10-22T17:53:22;8.48;;;6.38;;
42598;SDS011;28225;42.714;23.860;2022-10-22T17:55:48;9.68;;;3.90;;
42598;SDS011;28225;42.714;23.860;2022-10-22T17:58:13;11.73;;;5.28;;
42598;SDS011;28225;42.714;23.860;2022-10-22T18:00:39;4.03;;;3.65;;
42598;SDS011;28225;42.714;23.860;2022-10-22T18:03:05;6.72;;;4.28;;
42598;SDS011;28225;42.714;23.860;2022-10-22T18:05:31;2.60;;;2.40;;
42598;SDS011;28225;42.714;23.860;2022-10-22T18:07:57;1.92;;;1.80;;
42598;SDS011;28225;42.714;23.860;2022-10-22T18:10:23;1.50;;;1.40;;
42598;SDS011;28225;42.714;23.860;2022-10-22T18:12:49;1.73;;;1.63;;
42598;SDS011;28225;42.714;23.860;2022-10-22T18:15:15;2.42;;;2.22;;
42598;SDS011;28225;42.714;23.860;2022-10-22T18:17:40;2.63;;;2.42;;
42598;SDS011;28225;42.714;23.860;2022-10-22T18:20:06;4.53;;;4.15;;
42598;SDS011;28225;42.714;23.860;2022-10-22T18:22:32;1.65;;;1.55;;
42598;SDS011;28225;42.714;23.860;2022-10-22T18:24:58;3.58;;;2.42;;
42598;SDS011;28225;42.714;23.860;2022-10-22T18:27:24;3.08;;;2.88;;
42598;SDS011;28225;42.714;23.860;2022-10-22T18:29:49;3.47;;;3.17;;
42598;SDS011;28225;42.714;23.860;2022-10-22T18:32:15;3.30;;;3.00;;
42598;SDS011;28225;42.714;23.860;2022-10-22T18:34:40;2.85;;;2.55;;
42598;SDS011;28225;42.714;23.860;2022-10-22T18:37:06;5.00;;;4.60;;
42598;SDS011;28225;42.714;23.860;2022-10-22T18:39:32;10.25;;;3.58;;
42598;SDS011;28225;42.714;23.860;2022-10-22T18:41:58;3.05;;;2.85;;
42598;SDS011;28225;42.714;23.860;2022-10-22T18:44:24;2.28;;;2.13;;
42598;SDS011;28225;42.714;23.860;2022-10-22T18:46:50;4.60;;;3.33;;
42598;SDS011;28225;42.714;23.860;2022-10-22T18:49:16;2.67;;;2.47;;
42598;SDS011;28225;42.714;23.860;2022-10-22T18:51:42;5.68;;;4.80;;
42598;SDS011;28225;42.714;23.860;2022-10-22T18:54:08;22.23;;;3.50;;
42598;SDS011;28225;42.714;23.860;2022-10-22T18:56:34;2.58;;;2.15;;
42598;SDS011;28225;42.714;23.860;2022-10-22T18:59:00;5.88;;;4.53;;
42598;SDS011;28225;42.714;23.860;2022-10-22T19:01:26;7.78;;;5.85;;
42598;SDS011;28225;42.714;23.860;2022-10-22T19:03:53;4.65;;;3.83;;
42598;SDS011;28225;42.714;23.860;2022-10-22T19:06:23;4.13;;;3.10;;
42598;SDS011;28225;42.714;23.860;2022-10-22T19:08:55;6.65;;;6.10;;
42598;SDS011;28225;42.714;23.860;2022-10-22T19:11:21;13.63;;;6.22;;
42598;SDS011;28225;42.714;23.860;2022-10-22T19:13:47;7.70;;;4.78;;
42598;SDS011;28225;42.714;23.860;2022-10-22T19:16:15;6.90;;;6.25;;
42598;SDS011;28225;42.714;23.860;2022-10-22T19:18:42;4.38;;;4.03;;
42598;SDS011;28225;42.714;23.860;2022-10-22T19:21:08;4.38;;;4.07;;
42598;SDS011;28225;42.714;23.860;2022-10-22T19:23:35;2.85;;;2.65;;
42598;SDS011;28225;42.714;23.860;2022-10-22T19:26:06;4.13;;;2.05;;
42598;SDS011;28225;42.714;23.860;2022-10-22T19:28:34;4.45;;;3.33;;
42598;SDS011;28225;42.714;23.860;2022-10-22T19:31:03;5.63;;;4.57;;
42598;SDS011;28225;42.714;23.860;2022-10-22T19:33:50;2.30;;;2.10;;
42598;SDS011;28225;42.714;23.860;2022-10-22T19:36:18;3.33;;;3.07;;
42598;SDS011;28225;42.714;23.860;2022-10-22T19:38:45;3.10;;;2.88;;
42598;SDS011;28225;42.714;23.860;2022-10-22T19:41:12;2.97;;;2.75;;
42598;SDS011;28225;42.714;23.860;2022-10-22T19:43:39;4.22;;;3.92;;
42598;SDS011;28225;42.714;23.860;2022-10-22T19:46:05;4.68;;;4.28;;
42598;SDS011;28225;42.714;23.860;2022-10-22T19:48:31;5.28;;;4.75;;
42598;SDS011;28225;42.714;23.860;2022-10-22T19:50:57;2.92;;;2.72;;
42598;SDS011;28225;42.714;23.860;2022-10-22T19:53:30;10.90;;;2.75;;
42598;SDS011;28225;42.714;23.860;2022-10-22T19:55:57;5.25;;;4.85;;
42598;SDS011;28225;42.714;23.860;2022-10-22T19:58:23;4.78;;;4.32;;
42598;SDS011;28225;42.714;23.860;2022-10-22T20:00:49;2.78;;;2.58;;
42598;SDS011;28225;42.714;23.860;2022-10-22T20:03:15;2.92;;;2.72;;
42598;SDS011;28225;42.714;23.860;2022-10-22T20:05:41;1.75;;;1.65;;
42598;SDS011;28225;42.714;23.860;2022-10-22T20:08:07;2.72;;;2.53;;
42598;SDS011;28225;42.714;23.860;2022-10-22T20:10:34;1.48;;;1.38;;
42598;SDS011;28225;42.714;23.860;2022-10-22T20:13:00;5.25;;;2.83;;
42598;SDS011;28225;42.714;23.860;2022-10-22T20:15:25;3.53;;;3.10;;
42598;SDS011;28225;42.714;23.860;2022-10-22T20:17:51;4.57;;;4.18;;
42598;SDS011;28225;42.714;23.860;2022-10-22T20:20:17;14.30;;;3.60;;
42598;SDS011;28225;42.714;23.860;2022-10-22T20:22:42;2.10;;;2.00;;
42598;SDS011;28225;42.714;23.860;2022-10-22T20:25:08;4.22;;;3.15;;
42598;SDS011;28225;42.714;23.860;2022-10-22T20:27:35;2.55;;;2.45;;
42598;SDS011;28225;42.714;23.860;2022-10-22T20:30:01;3.17;;;3.00;;